Privlaka — 9AA4485 — position and weather

sailwx.info

Track history (hours):
 
Tides and Currents Weather Stations Pressure Air Temp Water Temp Dewpoint Dewpoint Depression Visibility Wind Speed Wind Dir Waves Ship Positions

Privlaka

Last reported at 2018-Jun-20 15:38 UTC. Time now 2018-Jun-20 19:21 UTC.
Position N 39°25' W 009°52'.

Length 166 m; draft 8.8 m.

Type: Cargo ship. MMSI: 238223000.

Date/timePositionNaut miles runAvg speedWind from/ knotsBaromVisibWave heightAir tempDewpointWater temp
2018-Jun-20 15:38N 39°25' W 009°52'211.8
2018-Jun-20 15:30N 39°23' W 009°52'612.0
2018-Jun-20 15:00N 39°18' W 009°52'611.8
2018-Jun-20 14:31N 39°12' W 009°52'612.0
2018-Jun-20 14:01N 39°06' W 009°53'612.0
2018-Jun-20 13:31N 38°60' W 009°53'611.7
2018-Jun-20 13:01N 38°54' W 009°52'611.6
2018-Jun-20 12:31N 38°48' W 009°52'611.5
2018-Jun-20 12:01N 38°42' W 009°51'611.2
2018-Jun-20 11:31N 38°37' W 009°50'611.3
2018-Jun-20 11:00N 38°31' W 009°48'611.8
2018-Jun-20 10:30N 38°25' W 009°47'611.5
2018-Jun-20 10:00N 38°20' W 009°45'611.4
2018-Jun-20 09:30N 38°14' W 009°44'611.6
2018-Jun-20 09:01N 38°09' W 009°42'612.4
2018-Jun-20 08:30N 38°03' W 009°40'612.4
2018-Jun-20 08:00N 37°56' W 009°39'612.4
2018-Jun-20 07:30N 37°50' W 009°38'612.2
2018-Jun-20 07:00N 37°44' W 009°37'612.4
2018-Jun-20 06:30N 37°38' W 009°35'812.4
2018-Jun-20 05:50N 37°31' W 009°31'7010.5
2018-Jun-19 23:07N 36°36' W 008°35'157 7.1
2018-Jun-19 00:51N 36°08' W 005°22'0 0.0
2018-Jun-18 19:03N 36°08' W 005°22'3 0.4
2018-Jun-18 09:34N 36°05' W 005°21'0 3.4
2018-Jun-18 09:29N 36°05' W 005°20'2 3.1
2018-Jun-18 08:59N 36°05' W 005°18'2 4.2
2018-Jun-18 08:31N 36°06' W 005°16'202 6.8
2018-Jun-17 02:49N 37°05' W 001°15'413.2
2018-Jun-17 02:29N 37°08' W 001°11'913.1
2018-Jun-17 01:48N 37°14' W 001°03'412.8
2018-Jun-17 01:29N 37°16' W 000°59'812.9
2018-Jun-17 00:54N 37°21' W 000°52'512.9
2018-Jun-17 00:29N 37°25' W 000°46'612.7
2018-Jun-17 00:00N 37°29' W 000°41'612.9
2018-Jun-16 23:30N 37°34' W 000°35'713.3
2018-Jun-16 23:00N 37°39' W 000°30'713.3
2018-Jun-16 22:30N 37°44' W 000°25'713.1
2018-Jun-16 22:00N 37°50' W 000°21'613.0
2018-Jun-16 21:30N 37°55' W 000°16'613.0
2018-Jun-16 21:00N 38°01' W 000°12'612.9
2018-Jun-16 20:30N 38°07' W 000°08'713.0
2018-Jun-16 20:00N 38°12' W 000°03'613.0
2018-Jun-16 19:30N 38°17' E 000°01'612.7
2018-Jun-16 19:00N 38°22' E 000°06'612.6
2018-Jun-16 18:30N 38°28' E 000°10'612.2
2018-Jun-16 18:00N 38°33' E 000°15'611.9
2018-Jun-16 17:30N 38°38' E 000°19'612.1
2018-Jun-16 16:58N 38°43' E 000°23'  
Track history (hours):
 
Tides and Currents Weather Stations Pressure Air Temp Water Temp Dewpoint Dewpoint Depression Visibility Wind Speed Wind Dir Waves Ship Positions

Privlaka

Last reported at 2018-Jun-20 15:38 UTC. Time now 2018-Jun-20 19:21 UTC.
Position N 39°25' W 009°52'.

Length 166 m; draft 8.8 m.

Type: Cargo ship. MMSI: 238223000.

Date/timePositionNaut miles runAvg speedWind from/ knotsBaromVisibWave heightAir tempDewpointWater temp
2018-Jun-20 15:38N 39°25' W 009°52'211.8
2018-Jun-20 15:30N 39°23' W 009°52'612.0
2018-Jun-20 15:00N 39°18' W 009°52'611.8
2018-Jun-20 14:31N 39°12' W 009°52'612.0
2018-Jun-20 14:01N 39°06' W 009°53'612.0
2018-Jun-20 13:31N 38°60' W 009°53'611.7
2018-Jun-20 13:01N 38°54' W 009°52'611.6
2018-Jun-20 12:31N 38°48' W 009°52'611.5
2018-Jun-20 12:01N 38°42' W 009°51'611.2
2018-Jun-20 11:31N 38°37' W 009°50'611.3
2018-Jun-20 11:00N 38°31' W 009°48'611.8
2018-Jun-20 10:30N 38°25' W 009°47'611.5
2018-Jun-20 10:00N 38°20' W 009°45'611.4
2018-Jun-20 09:30N 38°14' W 009°44'611.6
2018-Jun-20 09:01N 38°09' W 009°42'612.4
2018-Jun-20 08:30N 38°03' W 009°40'612.4
2018-Jun-20 08:00N 37°56' W 009°39'612.4
2018-Jun-20 07:30N 37°50' W 009°38'612.2
2018-Jun-20 07:00N 37°44' W 009°37'612.4
2018-Jun-20 06:30N 37°38' W 009°35'812.4
2018-Jun-20 05:50N 37°31' W 009°31'7010.5
2018-Jun-19 23:07N 36°36' W 008°35'157 7.1
2018-Jun-19 00:51N 36°08' W 005°22'0 0.0
2018-Jun-18 19:03N 36°08' W 005°22'3 0.4
2018-Jun-18 09:34N 36°05' W 005°21'0 3.4
2018-Jun-18 09:29N 36°05' W 005°20'2 3.1
2018-Jun-18 08:59N 36°05' W 005°18'2 4.2
2018-Jun-18 08:31N 36°06' W 005°16'202 6.8
2018-Jun-17 02:49N 37°05' W 001°15'413.2
2018-Jun-17 02:29N 37°08' W 001°11'913.1
2018-Jun-17 01:48N 37°14' W 001°03'412.8
2018-Jun-17 01:29N 37°16' W 000°59'812.9
2018-Jun-17 00:54N 37°21' W 000°52'512.9
2018-Jun-17 00:29N 37°25' W 000°46'612.7
2018-Jun-17 00:00N 37°29' W 000°41'612.9
2018-Jun-16 23:30N 37°34' W 000°35'713.3
2018-Jun-16 23:00N 37°39' W 000°30'713.3
2018-Jun-16 22:30N 37°44' W 000°25'713.1
2018-Jun-16 22:00N 37°50' W 000°21'613.0
2018-Jun-16 21:30N 37°55' W 000°16'613.0
2018-Jun-16 21:00N 38°01' W 000°12'612.9
2018-Jun-16 20:30N 38°07' W 000°08'713.0
2018-Jun-16 20:00N 38°12' W 000°03'613.0
2018-Jun-16 19:30N 38°17' E 000°01'612.7
2018-Jun-16 19:00N 38°22' E 000°06'612.6
2018-Jun-16 18:30N 38°28' E 000°10'612.2
2018-Jun-16 18:00N 38°33' E 000°15'611.9
2018-Jun-16 17:30N 38°38' E 000°19'612.1
2018-Jun-16 16:58N 38°43' E 000°23'  

Dump ship's entire track history